Time;durP1;ratioP1;P1;durP2;ratioP2;P2;SDS_P1;SDS_P2;PMS_P1;PMS_P2;Temp;Humidity;BMP_temperature;BMP_pressure;BME280_temperature;BME280_humidity;BME280_pressure;Samples;Min_cycle;Max_cycle;Signal;HPM_P1;HPM_P2
2022/05/02 00:02:22;;;;;;;18.17;9.30;;;;;;;;;;5035090;28;20032;-68
2022/05/02 00:04:47;;;;;;;19.95;8.85;;;;;;;;;;5033210;28;20042;-68
2022/05/02 00:07:13;;;;;;;16.60;8.48;;;;;;;;;;5033115;28;20553;-68
2022/05/02 00:09:38;;;;;;;17.52;9.13;;;;;;;;;;5039691;28;20013;-68
2022/05/02 00:12:04;;;;;;;18.98;8.55;;;;;;;;;;5046316;28;20402;-69
2022/05/02 00:14:30;;;;;;;14.95;8.70;;;;;;;;;;5042136;28;20030;-68
2022/05/02 00:16:55;;;;;;;17.05;8.85;;;;;;;;;;5032907;28;20079;-68
2022/05/02 00:19:20;;;;;;;16.42;8.63;;;;;;;;;;5039616;28;20457;-69
2022/05/02 00:21:46;;;;;;;21.08;8.95;;;;;;;;;;5029186;28;20134;-68
2022/05/02 00:24:11;;;;;;;16.52;8.48;;;;;;;;;;5036243;28;20033;-68
2022/05/02 00:26:36;;;;;;;17.23;8.60;;;;;;;;;;5034160;28;20116;-68
2022/05/02 00:29:02;;;;;;;17.65;8.88;;;;;;;;;;5030199;28;20414;-68
2022/05/02 00:31:27;;;;;;;15.95;8.82;;;;;;;;;;5031932;28;20406;-69
2022/05/02 00:33:53;;;;;;;16.13;8.50;;;;;;;;;;5038312;28;20176;-68
2022/05/02 00:36:18;;;;;;;15.63;8.75;;;;;;;;;;5039713;28;20087;-68
2022/05/02 00:38:43;;;;;;;16.50;8.60;;;;;;;;;;5046363;28;20059;-68
2022/05/02 00:41:10;;;;;;;16.77;8.35;;;;;;;;;;5042358;28;20076;-67
2022/05/02 00:43:36;;;;;;;15.63;8.20;;;;;;;;;;5034850;28;20040;-68
2022/05/02 00:46:01;;;;;;;16.65;8.95;;;;;;;;;;5033297;28;20037;-68
2022/05/02 00:48:28;;;;;;;16.58;8.55;;;;;;;;;;5034057;28;20657;-67
2022/05/02 00:50:54;;;;;;;16.65;8.48;;;;;;;;;;5033730;28;20028;-68
2022/05/02 00:53:22;;;;;;;17.70;9.20;;;;;;;;;;5032760;28;20396;-68
2022/05/02 00:55:47;;;;;;;17.90;9.05;;;;;;;;;;5033164;28;20034;-68
2022/05/02 00:58:14;;;;;;;15.85;8.65;;;;;;;;;;5036806;28;20029;-68
2022/05/02 01:00:40;;;;;;;18.35;8.98;;;;;;;;;;5036159;28;20094;-68
2022/05/02 01:03:08;;;;;;;24.50;10.93;;;;;;;;;;5039089;28;20033;-68
2022/05/02 01:08:33;;;;;;;20.15;10.73;;;;;;;;;;5042563;28;20041;-68
2022/05/02 01:10:59;;;;;;;20.63;10.93;;;;;;;;;;5032604;28;20506;-68
2022/05/02 01:13:32;;;;;;;20.42;10.05;;;;;;;;;;5036457;28;20068;-68
2022/05/02 01:15:57;;;;;;;21.60;11.20;;;;;;;;;;5025557;28;20045;-68
2022/05/02 01:18:22;;;;;;;21.13;10.23;;;;;;;;;;5033228;28;20021;-68
2022/05/02 01:20:48;;;;;;;20.10;9.50;;;;;;;;;;5033667;28;20034;-69
2022/05/02 01:23:13;;;;;;;19.38;9.57;;;;;;;;;;5027372;28;20033;-68
2022/05/02 01:25:38;;;;;;;20.13;9.38;;;;;;;;;;5033728;28;20118;-68
2022/05/02 01:28:04;;;;;;;16.48;8.88;;;;;;;;;;5038200;28;20037;-68
2022/05/02 01:30:29;;;;;;;17.02;9.40;;;;;;;;;;5043125;28;20047;-68
2022/05/02 01:32:55;;;;;;;18.23;10.35;;;;;;;;;;5044334;28;20037;-68
2022/05/02 01:35:20;;;;;;;19.00;10.02;;;;;;;;;;5044398;28;20075;-68
2022/05/02 01:37:45;;;;;;;19.65;10.98;;;;;;;;;;5032419;28;20478;-68
2022/05/02 01:40:11;;;;;;;21.08;11.00;;;;;;;;;;5038193;28;20041;-68
2022/05/02 01:42:36;;;;;;;22.52;10.70;;;;;;;;;;5027974;28;20052;-68
2022/05/02 01:45:04;;;;;;;18.48;9.95;;;;;;;;;;5026851;28;20017;-68
2022/05/02 01:47:29;;;;;;;17.17;10.25;;;;;;;;;;5029916;28;20033;-68
2022/05/02 01:49:55;;;;;;;21.60;10.63;;;;;;;;;;5046776;28;20043;-68
2022/05/02 01:52:20;;;;;;;23.40;10.65;;;;;;;;;;5046580;28;20112;-68
2022/05/02 01:54:45;;;;;;;25.50;11.55;;;;;;;;;;5040297;28;20039;-68
2022/05/02 01:57:10;;;;;;;21.77;11.32;;;;;;;;;;5035105;28;20036;-68
2022/05/02 01:59:36;;;;;;;23.38;11.52;;;;;;;;;;5031963;28;20033;-68
2022/05/02 02:02:01;;;;;;;23.92;10.43;;;;;;;;;;5031766;28;20756;-68
2022/05/02 02:07:10;;;;;;;21.17;9.77;;;;;;;;;;5029514;28;20045;-68
2022/05/02 02:09:36;;;;;;;23.33;10.55;;;;;;;;;;5044547;28;20025;-68
2022/05/02 02:12:01;;;;;;;24.80;10.82;;;;;;;;;;5043865;28;20490;-68
2022/05/02 02:14:26;;;;;;;19.80;10.43;;;;;;;;;;5046814;28;20475;-68
2022/05/02 02:16:52;;;;;;;20.17;10.23;;;;;;;;;;5038565;28;20061;-69
2022/05/02 02:19:17;;;;;;;19.13;10.02;;;;;;;;;;5037958;28;20042;-68
2022/05/02 02:21:42;;;;;;;20.45;10.65;;;;;;;;;;5042379;28;20033;-68
2022/05/02 02:24:08;;;;;;;18.23;10.07;;;;;;;;;;5042294;28;20607;-68
2022/05/02 02:26:33;;;;;;;20.52;10.48;;;;;;;;;;5044996;28;20040;-68
2022/05/02 02:28:59;;;;;;;20.75;10.25;;;;;;;;;;5042428;28;20099;-68
2022/05/02 02:31:24;;;;;;;22.60;10.48;;;;;;;;;;5048947;28;20564;-68
2022/05/02 02:33:50;;;;;;;22.05;10.38;;;;;;;;;;5045298;28;20032;-68
2022/05/02 02:36:15;;;;;;;20.55;10.43;;;;;;;;;;5050072;28;20083;-68
2022/05/02 02:38:40;;;;;;;21.67;10.90;;;;;;;;;;5045335;28;20042;-68
2022/05/02 02:41:05;;;;;;;22.85;12.13;;;;;;;;;;5041280;28;20059;-68
2022/05/02 02:43:31;;;;;;;20.02;10.38;;;;;;;;;;5033147;28;20601;-68
2022/05/02 02:45:56;;;;;;;23.20;11.38;;;;;;;;;;5037505;28;20056;-69
2022/05/02 02:48:21;;;;;;;22.65;10.70;;;;;;;;;;5042155;28;20029;-68
2022/05/02 02:50:47;;;;;;;22.58;11.18;;;;;;;;;;5031088;28;20758;-68
2022/05/02 02:53:12;;;;;;;24.65;11.07;;;;;;;;;;5040166;28;20041;-68
2022/05/02 02:55:37;;;;;;;21.83;11.05;;;;;;;;;;5035946;28;20037;-68
2022/05/02 02:58:04;;;;;;;19.73;10.60;;;;;;;;;;5041810;28;20057;-68
2022/05/02 03:00:30;;;;;;;21.40;10.70;;;;;;;;;;5039786;28;20039;-68
2022/05/02 03:02:55;;;;;;;21.63;11.38;;;;;;;;;;5045921;28;20025;-67
2022/05/02 03:08:07;;;;;;;26.55;11.55;;;;;;;;;;5036019;28;20060;-68
2022/05/02 03:10:32;;;;;;;26.88;12.98;;;;;;;;;;5039860;28;20041;-68
2022/05/02 03:12:58;;;;;;;26.65;12.57;;;;;;;;;;5035726;28;20044;-69
2022/05/02 03:15:23;;;;;;;30.38;14.02;;;;;;;;;;5030648;28;20037;-68
2022/05/02 03:17:49;;;;;;;28.90;13.85;;;;;;;;;;5036377;28;20461;-68
2022/05/02 03:20:14;;;;;;;31.02;15.75;;;;;;;;;;5041112;28;20075;-68
2022/05/02 03:22:40;;;;;;;32.80;16.10;;;;;;;;;;5033198;28;20107;-68
2022/05/02 03:25:06;;;;;;;37.58;17.70;;;;;;;;;;5041340;28;20853;-68
2022/05/02 03:27:31;;;;;;;33.40;17.20;;;;;;;;;;5033416;28;20529;-68
2022/05/02 03:29:57;;;;;;;36.33;17.73;;;;;;;;;;5036357;28;20033;-68
2022/05/02 03:32:22;;;;;;;35.67;16.75;;;;;;;;;;5033826;28;20043;-68
2022/05/02 03:34:47;;;;;;;34.45;16.83;;;;;;;;;;5035412;28;20052;-68
2022/05/02 03:37:14;;;;;;;36.35;17.02;;;;;;;;;;5036012;28;20060;-68
2022/05/02 03:39:39;;;;;;;38.83;16.80;;;;;;;;;;5038999;28;20025;-68
2022/05/02 03:42:05;;;;;;;33.05;16.50;;;;;;;;;;5035679;28;20031;-68
2022/05/02 03:44:30;;;;;;;42.00;19.13;;;;;;;;;;5030340;28;20030;-68
2022/05/02 03:46:56;;;;;;;34.53;17.00;;;;;;;;;;5035141;28;20068;-68
2022/05/02 03:49:21;;;;;;;35.38;16.75;;;;;;;;;;5036699;28;20045;-68
2022/05/02 03:51:46;;;;;;;35.08;16.17;;;;;;;;;;5043568;28;20041;-68
2022/05/02 03:54:11;;;;;;;37.83;16.38;;;;;;;;;;5045453;28;20418;-68
2022/05/02 03:56:37;;;;;;;37.88;16.50;;;;;;;;;;5039706;28;20094;-67
2022/05/02 03:59:03;;;;;;;36.22;17.35;;;;;;;;;;5027284;28;20119;-68
2022/05/02 04:01:28;;;;;;;39.97;17.88;;;;;;;;;;5033061;28;20765;-68
2022/05/02 04:03:54;;;;;;;36.28;17.85;;;;;;;;;;5036103;28;20056;-68
2022/05/02 04:06:19;;;;;;;34.88;16.80;;;;;;;;;;5040579;28;20053;-68
2022/05/02 04:08:44;;;;;;;39.55;17.85;;;;;;;;;;5044785;28;20033;-68
2022/05/02 04:11:10;;;;;;;40.75;18.35;;;;;;;;;;5042808;28;20037;-68
2022/05/02 04:13:35;;;;;;;36.20;17.48;;;;;;;;;;5043349;28;20033;-68
2022/05/02 04:16:00;;;;;;;41.35;19.23;;;;;;;;;;5033742;28;20045;-68
2022/05/02 04:18:26;;;;;;;43.45;18.83;;;;;;;;;;5029552;28;20037;-69
2022/05/02 04:20:51;;;;;;;39.10;17.40;;;;;;;;;;5038594;28;20052;-68
2022/05/02 04:23:16;;;;;;;46.28;18.95;;;;;;;;;;5033603;28;20049;-68
2022/05/02 04:25:42;;;;;;;39.40;18.67;;;;;;;;;;5039954;28;20045;-68
2022/05/02 04:28:08;;;;;;;46.72;19.17;;;;;;;;;;5046304;28;20029;-68
2022/05/02 04:30:33;;;;;;;41.13;18.35;;;;;;;;;;5033707;28;20029;-68
2022/05/02 04:32:59;;;;;;;37.97;16.77;;;;;;;;;;5040936;28;20090;-68
2022/05/02 04:35:24;;;;;;;39.10;17.65;;;;;;;;;;5037068;28;20038;-68
2022/05/02 04:37:49;;;;;;;37.08;17.00;;;;;;;;;;5041043;28;20063;-68
2022/05/02 04:40:14;;;;;;;42.92;18.52;;;;;;;;;;5032169;28;20367;-68
2022/05/02 04:42:40;;;;;;;40.92;18.48;;;;;;;;;;5040178;28;20112;-68
2022/05/02 04:45:06;;;;;;;37.15;17.77;;;;;;;;;;5040686;28;20037;-68
2022/05/02 04:47:31;;;;;;;43.55;18.23;;;;;;;;;;5037150;28;20507;-69
2022/05/02 04:49:56;;;;;;;35.15;17.15;;;;;;;;;;5038405;28;20098;-68
2022/05/02 04:52:22;;;;;;;41.95;18.90;;;;;;;;;;5042988;28;20430;-68
2022/05/02 04:54:47;;;;;;;40.08;18.10;;;;;;;;;;5033392;28;20037;-68
2022/05/02 04:57:13;;;;;;;39.25;18.13;;;;;;;;;;5034867;28;20037;-68
2022/05/02 04:59:38;;;;;;;37.53;18.17;;;;;;;;;;5037094;28;20441;-68
2022/05/02 05:02:04;;;;;;;39.80;18.38;;;;;;;;;;5034244;28;20466;-68
2022/05/02 05:04:30;;;;;;;41.80;18.45;;;;;;;;;;5037887;28;20083;-68
2022/05/02 05:06:55;;;;;;;38.22;17.58;;;;;;;;;;5030906;28;20073;-68
2022/05/02 05:09:20;;;;;;;41.35;18.17;;;;;;;;;;5034495;28;20036;-68
2022/05/02 05:12:08;;;;;;;41.35;18.70;;;;;;;;;;5040130;28;20101;-68
2022/05/02 05:17:45;;;;;;;38.35;18.70;;;;;;;;;;5033327;28;20054;-68
2022/05/02 05:20:32;;;;;;;44.22;18.63;;;;;;;;;;5030646;28;20533;-68
2022/05/02 05:22:58;;;;;;;38.47;18.20;;;;;;;;;;5039543;28;20105;-67
2022/05/02 05:26:01;;;;;;;42.58;18.50;;;;;;;;;;5038045;28;20458;-67
2022/05/02 05:28:35;;;;;;;39.53;18.55;;;;;;;;;;5040936;28;20906;-68
2022/05/02 05:31:24;;;;;;;39.63;19.80;;;;;;;;;;5037768;28;20440;-68
2022/05/02 05:33:55;;;;;;;41.53;19.33;;;;;;;;;;5034926;28;20046;-68
2022/05/02 05:37:01;;;;;;;42.00;19.13;;;;;;;;;;5031614;28;20028;-68
2022/05/02 05:39:49;;;;;;;43.38;19.30;;;;;;;;;;5042113;28;20048;-67
2022/05/02 05:42:28;;;;;;;42.05;18.88;;;;;;;;;;5029599;28;20123;-67
2022/05/02 05:45:04;;;;;;;42.03;19.70;;;;;;;;;;5040295;28;20033;-68
2022/05/02 05:47:57;;;;;;;40.42;19.00;;;;;;;;;;5033995;28;20049;-68
2022/05/02 05:50:23;;;;;;;45.27;20.17;;;;;;;;;;5026398;28;20168;-67
2022/05/02 05:52:55;;;;;;;40.65;20.45;;;;;;;;;;5025012;28;20045;-68
2022/05/02 05:55:39;;;;;;;43.72;20.02;;;;;;;;;;5028074;28;20299;-68
2022/05/02 05:58:45;;;;;;;42.65;20.00;;;;;;;;;;5031535;28;20056;-67
2022/05/02 06:01:13;;;;;;;38.17;19.42;;;;;;;;;;4994379;28;20071;-68
2022/05/02 06:03:59;;;;;;;44.28;19.92;;;;;;;;;;5027386;28;20025;-68
2022/05/02 06:06:27;;;;;;;42.33;20.52;;;;;;;;;;5022865;28;20128;-68
2022/05/02 06:08:53;;;;;;;40.15;19.75;;;;;;;;;;5026556;28;20087;-67
2022/05/02 06:11:19;;;;;;;42.45;19.98;;;;;;;;;;5024947;28;20056;-68
2022/05/02 06:13:45;;;;;;;43.20;20.00;;;;;;;;;;5025466;28;20036;-68
2022/05/02 06:18:59;;;;;;;44.72;19.88;;;;;;;;;;5028313;28;20056;-68
2022/05/02 06:21:24;;;;;;;40.53;18.58;;;;;;;;;;5026248;28;20127;-68
2022/05/02 06:23:51;;;;;;;43.17;21.08;;;;;;;;;;5037115;28;20112;-68
2022/05/02 06:26:20;;;;;;;46.55;20.58;;;;;;;;;;5031105;28;20808;-68
2022/05/02 06:28:49;;;;;;;40.53;19.55;;;;;;;;;;5034252;28;20033;-68
2022/05/02 06:31:20;;;;;;;37.28;19.33;;;;;;;;;;5034604;28;20060;-68
2022/05/02 06:33:51;;;;;;;41.95;21.63;;;;;;;;;;5030980;28;20039;-68
2022/05/02 06:36:35;;;;;;;41.00;19.63;;;;;;;;;;5024890;28;20029;-69
2022/05/02 06:39:01;;;;;;;39.28;19.50;;;;;;;;;;5028544;28;20069;-69
2022/05/02 06:42:13;;;;;;;41.80;19.83;;;;;;;;;;5026322;28;20132;-68
2022/05/02 06:44:57;;;;;;;37.80;18.02;;;;;;;;;;5035132;28;20045;-69
2022/05/02 06:47:42;;;;;;;;;;;;;;;;;;5033047;28;20084;-67
2022/05/02 06:50:10;;;;;;;38.40;18.35;;;;;;;;;;5030748;28;20007;-69
2022/05/02 06:52:59;;;;;;;44.45;19.90;;;;;;;;;;5035880;28;20037;-68
2022/05/02 06:55:40;;;;;;;39.53;19.48;;;;;;;;;;5030227;28;20073;-70
2022/05/02 06:58:44;;;;;;;39.17;19.77;;;;;;;;;;5028312;28;20060;-67
2022/05/02 07:01:36;;;;;;;43.90;19.83;;;;;;;;;;5034555;28;20049;-68
2022/05/02 07:04:04;;;;;;;38.85;18.52;;;;;;;;;;5040147;28;20430;-67
2022/05/02 07:06:54;;;;;;;37.33;16.83;;;;;;;;;;5039406;28;20083;-68
2022/05/02 07:09:43;;;;;;;34.70;17.48;;;;;;;;;;5037256;28;20025;-68
2022/05/02 07:12:18;;;;;;;33.75;17.20;;;;;;;;;;5030057;28;20041;-68
2022/05/02 07:14:56;;;;;;;38.83;17.95;;;;;;;;;;5037954;28;20048;-68
2022/05/02 07:17:49;;;;;;;37.72;17.42;;;;;;;;;;5035513;28;20120;-68
2022/05/02 07:20:32;;;;;;;42.40;18.63;;;;;;;;;;5033691;28;20049;-68
2022/05/02 07:23:16;;;;;;;33.67;17.97;;;;;;;;;;5031359;28;20102;-68
2022/05/02 07:25:44;;;;;;;36.35;18.30;;;;;;;;;;5031132;28;20040;-69
2022/05/02 07:28:24;;;;;;;39.10;19.50;;;;;;;;;;5033115;28;20057;-67
2022/05/02 07:30:54;;;;;;;36.28;17.23;;;;;;;;;;5028368;28;20045;-68
2022/05/02 07:33:20;;;;;;;40.92;18.95;;;;;;;;;;5033604;28;20029;-71
2022/05/02 07:35:47;;;;;;;38.72;18.27;;;;;;;;;;5031292;28;20095;-71
2022/05/02 07:38:15;;;;;;;38.08;18.65;;;;;;;;;;5033895;28;20851;-71
2022/05/02 07:41:22;;;;;;;35.28;18.23;;;;;;;;;;5034168;28;20033;-71
2022/05/02 07:43:33;;;;;;;36.38;17.35;;;;;;;;;;5028864;28;20033;-71
2022/05/02 07:46:00;;;;;;;41.90;19.95;;;;;;;;;;5035971;28;20514;-70
2022/05/02 07:48:26;;;;;;;36.92;17.35;;;;;;;;;;5030558;28;20025;-71
2022/05/02 07:50:52;;;;;;;37.95;18.25;;;;;;;;;;5034395;28;20060;-71
2022/05/02 07:53:19;;;;;;;29.90;14.02;;;;;;;;;;5038800;28;20042;-71
2022/05/02 07:55:47;;;;;;;34.53;16.88;;;;;;;;;;5032526;28;20037;-71
2022/05/02 07:58:14;;;;;;;33.05;17.30;;;;;;;;;;5031940;28;20103;-71
2022/05/02 08:00:39;;;;;;;33.95;16.25;;;;;;;;;;5029702;28;20490;-66
2022/05/02 08:03:05;;;;;;;38.20;18.20;;;;;;;;;;5036364;28;20029;-67
2022/05/02 08:05:30;;;;;;;32.45;17.25;;;;;;;;;;5044785;28;20938;-68
2022/05/02 08:08:12;;;;;;;35.30;17.58;;;;;;;;;;5034622;28;20041;-69
2022/05/02 08:10:49;;;;;;;33.20;17.08;;;;;;;;;;5030880;28;20037;-68
2022/05/02 08:13:27;;;;;;;36.28;17.95;;;;;;;;;;5029005;28;20055;-66
2022/05/02 08:16:05;;;;;;;41.05;18.50;;;;;;;;;;5032005;28;20044;-65
2022/05/02 08:18:43;;;;;;;35.93;18.57;;;;;;;;;;5034803;28;20029;-66
2022/05/02 08:21:16;;;;;;;39.78;19.17;;;;;;;;;;5026171;28;20056;-67
2022/05/02 08:27:16;;;;;;;41.95;20.85;;;;;;;;;;5026036;28;20106;-66
2022/05/02 08:30:06;;;;;;;39.83;18.63;;;;;;;;;;5032228;28;20038;-66
2022/05/02 08:32:40;;;;;;;35.47;17.80;;;;;;;;;;5026798;28;20037;-66
2022/05/02 08:35:14;;;;;;;38.05;18.13;;;;;;;;;;5035235;28;20040;-66
2022/05/02 08:37:55;;;;;;;37.67;18.60;;;;;;;;;;5034094;28;20042;-66
2022/05/02 08:40:26;;;;;;;41.20;19.27;;;;;;;;;;5036501;28;20041;-66
2022/05/02 08:43:06;;;;;;;44.13;20.80;;;;;;;;;;5029371;28;20037;-66
2022/05/02 08:45:35;;;;;;;39.60;18.30;;;;;;;;;;5032533;28;20036;-65
2022/05/02 08:48:34;;;;;;;36.65;18.50;;;;;;;;;;5030398;28;20033;-65
2022/05/02 08:51:57;;;;;;;37.60;18.65;;;;;;;;;;5030209;28;20518;-65
2022/05/02 08:54:49;;;;;;;30.73;13.95;;;;;;;;;;5030495;28;20037;-65
2022/05/02 08:57:37;;;;;;;29.38;14.25;;;;;;;;;;5031494;28;20619;-65
2022/05/02 09:00:07;;;;;;;34.70;14.45;;;;;;;;;;5036683;28;20753;-66
2022/05/02 09:03:03;;;;;;;33.22;14.65;;;;;;;;;;5029948;28;20049;-65
2022/05/02 09:05:44;;;;;;;27.40;14.13;;;;;;;;;;5030384;28;20040;-66
2022/05/02 09:08:31;;;;;;;31.83;14.35;;;;;;;;;;5035308;28;20049;-66
2022/05/02 09:11:47;;;;;;;32.47;15.10;;;;;;;;;;5033514;28;20033;-65
2022/05/02 09:14:31;;;;;;;25.35;13.27;;;;;;;;;;5024038;28;20065;-65
2022/05/02 09:17:34;;;;;;;24.23;12.55;;;;;;;;;;5032346;28;20044;-67
2022/05/02 09:20:18;;;;;;;22.88;12.38;;;;;;;;;;5034370;28;20524;-66
2022/05/02 09:23:21;;;;;;;23.58;12.88;;;;;;;;;;5032034;28;20045;-67
2022/05/02 09:26:05;;;;;;;23.75;12.55;;;;;;;;;;5027163;28;20088;-67
2022/05/02 09:28:39;;;;;;;26.67;12.88;;;;;;;;;;5037408;28;20110;-66
2022/05/02 09:31:28;;;;;;;22.75;13.02;;;;;;;;;;5028400;28;20044;-66
2022/05/02 09:34:32;;;;;;;21.88;11.35;;;;;;;;;;5034458;28;20034;-67
2022/05/02 09:37:06;;;;;;;19.48;10.40;;;;;;;;;;5033266;28;20047;-67
2022/05/02 09:39:48;;;;;;;23.02;11.70;;;;;;;;;;5033316;28;20090;-66
2022/05/02 09:42:35;;;;;;;18.15;10.52;;;;;;;;;;5030388;28;20040;-65
2022/05/02 09:49:33;;;;;;;24.95;13.10;;;;;;;;;;5032773;28;20087;-67
2022/05/02 09:51:17;;;;;;;21.20;12.40;;;;;;;;;;5025856;28;20079;-66
2022/05/02 09:53:59;;;;;;;22.08;11.60;;;;;;;;;;5033932;28;20640;-67
2022/05/02 09:56:41;;;;;;;21.05;11.90;;;;;;;;;;5033765;28;20101;-67
2022/05/02 09:59:07;;;;;;;19.27;11.35;;;;;;;;;;5030708;28;20072;-67
2022/05/02 10:01:33;;;;;;;17.88;11.07;;;;;;;;;;5030331;28;20069;-66
2022/05/02 10:04:03;;;;;;;17.90;10.68;;;;;;;;;;5026091;28;20049;-67
2022/05/02 10:06:34;;;;;;;20.23;11.10;;;;;;;;;;5028971;28;20132;-66
2022/05/02 10:09:11;;;;;;;19.58;9.82;;;;;;;;;;5030453;28;20044;-66
2022/05/02 10:11:58;;;;;;;21.75;10.02;;;;;;;;;;5026705;28;20034;-67
2022/05/02 10:14:48;;;;;;;15.13;9.15;;;;;;;;;;5029311;28;20049;-67
2022/05/02 10:17:17;;;;;;;15.32;8.30;;;;;;;;;;5038047;28;20038;-67
2022/05/02 10:20:06;;;;;;;16.75;8.35;;;;;;;;;;5031171;28;20494;-68
2022/05/02 10:23:11;;;;;;;17.92;9.27;;;;;;;;;;5034618;28;20562;-67
2022/05/02 10:25:37;;;;;;;21.77;9.63;;;;;;;;;;5023953;28;20029;-67
2022/05/02 10:28:07;;;;;;;20.33;9.85;;;;;;;;;;5039621;28;20048;-68
2022/05/02 10:30:35;;;;;;;17.00;9.80;;;;;;;;;;5035057;28;20032;-68
2022/05/02 10:33:05;;;;;;;15.60;8.48;;;;;;;;;;5038565;28;20033;-68
2022/05/02 10:35:33;;;;;;;17.85;9.23;;;;;;;;;;5035304;28;20044;-67
2022/05/02 10:38:01;;;;;;;16.23;9.35;;;;;;;;;;5033314;28;20539;-67
2022/05/02 10:40:39;;;;;;;15.88;8.98;;;;;;;;;;5034510;28;20871;-67
2022/05/02 10:43:09;;;;;;;15.10;8.18;;;;;;;;;;5032016;28;20143;-66
2022/05/02 10:45:36;;;;;;;12.30;7.40;;;;;;;;;;5033364;28;20025;-66
2022/05/02 10:48:18;;;;;;;13.77;8.23;;;;;;;;;;5037084;28;20517;-69
2022/05/02 10:51:12;;;;;;;12.95;8.68;;;;;;;;;;5034251;28;20068;-67
2022/05/02 10:54:11;;;;;;;14.63;7.80;;;;;;;;;;5036316;28;20039;-66
2022/05/02 10:56:47;;;;;;;18.02;9.60;;;;;;;;;;5036067;28;20041;-68
2022/05/02 10:59:14;;;;;;;18.98;8.00;;;;;;;;;;5033648;28;20059;-68
2022/05/02 11:02:04;;;;;;;14.95;8.82;;;;;;;;;;5038075;28;20103;-68
2022/05/02 11:04:35;;;;;;;14.98;8.80;;;;;;;;;;5048267;28;20033;-67
2022/05/02 11:07:30;;;;;;;14.13;8.13;;;;;;;;;;5043448;28;20045;-68
2022/05/02 11:09:55;;;;;;;14.18;8.90;;;;;;;;;;5035931;28;20102;-68
2022/05/02 11:12:31;;;;;;;15.90;8.23;;;;;;;;;;5032144;28;21010;-69
2022/05/02 11:15:05;;;;;;;15.02;9.07;;;;;;;;;;5035221;28;20051;-67
2022/05/02 11:17:39;;;;;;;17.20;10.07;;;;;;;;;;5033368;28;20037;-68
2022/05/02 11:23:10;;;;;;;16.20;8.82;;;;;;;;;;5038534;28;20087;-68
2022/05/02 11:25:41;;;;;;;14.05;8.02;;;;;;;;;;5040914;28;20536;-69
2022/05/02 11:28:13;;;;;;;14.65;8.60;;;;;;;;;;5034830;28;20051;-68
2022/05/02 11:30:55;;;;;;;17.55;9.52;;;;;;;;;;5030316;28;20021;-66
2022/05/02 11:33:42;;;;;;;16.65;9.18;;;;;;;;;;5029214;28;20037;-66
2022/05/02 11:36:10;;;;;;;16.58;8.68;;;;;;;;;;5035088;28;20131;-66
2022/05/02 11:38:45;;;;;;;15.77;9.10;;;;;;;;;;5037071;28;20427;-67
2022/05/02 11:41:19;;;;;;;19.20;9.90;;;;;;;;;;5036175;28;20536;-67
2022/05/02 11:43:47;;;;;;;17.92;9.27;;;;;;;;;;5035025;28;20090;-68
2022/05/02 11:46:24;;;;;;;16.70;8.98;;;;;;;;;;5034547;28;20195;-67
2022/05/02 11:49:40;;;;;;;13.95;8.18;;;;;;;;;;5040030;28;20122;-68
2022/05/02 11:52:11;;;;;;;17.33;8.73;;;;;;;;;;5020096;28;20052;-68
2022/05/02 11:54:39;;;;;;;13.98;8.40;;;;;;;;;;5031626;28;20037;-67
2022/05/02 11:57:36;;;;;;;13.90;7.70;;;;;;;;;;5034543;28;20124;-68
2022/05/02 12:00:11;;;;;;;15.48;8.32;;;;;;;;;;5023976;28;20453;-68
2022/05/02 12:02:44;;;;;;;13.50;8.40;;;;;;;;;;5034677;28;20530;-67
2022/05/02 12:05:35;;;;;;;13.23;8.23;;;;;;;;;;5027709;28;20114;-67
2022/05/02 12:08:09;;;;;;;15.43;7.80;;;;;;;;;;5036415;28;20060;-68
2022/05/02 12:10:48;;;;;;;13.68;8.30;;;;;;;;;;5035116;28;20119;-68
2022/05/02 12:13:18;;;;;;;13.48;7.97;;;;;;;;;;5033287;28;20242;-66
2022/05/02 12:16:13;;;;;;;14.50;8.50;;;;;;;;;;5033439;28;20036;-68
2022/05/02 12:18:53;;;;;;;12.65;8.13;;;;;;;;;;5029351;28;20133;-68
2022/05/02 12:21:40;;;;;;;12.63;6.93;;;;;;;;;;5037156;28;20043;-69
2022/05/02 12:24:07;;;;;;;11.70;7.13;;;;;;;;;;5029902;28;20516;-69
2022/05/02 12:26:35;;;;;;;10.43;6.90;;;;;;;;;;5035666;28;20078;-68
2022/05/02 12:29:13;;;;;;;11.77;6.95;;;;;;;;;;5031323;28;20041;-68
2022/05/02 12:31:42;;;;;;;12.80;7.20;;;;;;;;;;5034413;28;20458;-69
2022/05/02 12:34:12;;;;;;;10.35;6.90;;;;;;;;;;5029100;28;21328;-68
2022/05/02 12:36:43;;;;;;;10.45;6.95;;;;;;;;;;5041608;28;20021;-69
2022/05/02 12:39:25;;;;;;;11.85;6.88;;;;;;;;;;5030176;28;20022;-70
2022/05/02 12:42:01;;;;;;;12.70;6.72;;;;;;;;;;5036254;28;20033;-70
2022/05/02 12:44:41;;;;;;;13.63;7.15;;;;;;;;;;5027128;28;20037;-67
2022/05/02 12:47:12;;;;;;;13.85;6.45;;;;;;;;;;5035249;28;20043;-69
2022/05/02 12:49:41;;;;;;;12.20;6.63;;;;;;;;;;5026063;28;20053;-67
2022/05/02 12:52:07;;;;;;;12.63;7.35;;;;;;;;;;5027183;28;20064;-68
2022/05/02 12:54:33;;;;;;;11.57;7.30;;;;;;;;;;5025608;28;20403;-68
2022/05/02 13:02:41;;;;;;;13.23;6.93;;;;;;;;;;5028015;28;20040;-67
2022/05/02 13:05:11;;;;;;;16.23;7.80;;;;;;;;;;5025143;28;20544;-67
2022/05/02 13:07:44;;;;;;;21.23;8.75;;;;;;;;;;5026206;28;20060;-68
2022/05/02 13:10:24;;;;;;;17.87;8.30;;;;;;;;;;5029739;28;20106;-68
2022/05/02 13:12:58;;;;;;;15.95;7.72;;;;;;;;;;5030320;28;20044;-67
2022/05/02 13:15:28;;;;;;;15.45;7.20;;;;;;;;;;5031505;28;20436;-67
2022/05/02 13:17:58;;;;;;;11.00;7.10;;;;;;;;;;5028327;28;20052;-70
2022/05/02 13:20:26;;;;;;;12.00;6.70;;;;;;;;;;5026415;28;20059;-69
2022/05/02 13:23:04;;;;;;;11.10;7.10;;;;;;;;;;5029834;28;22139;-68
2022/05/02 13:26:07;;;;;;;11.43;7.43;;;;;;;;;;5028074;28;20782;-68
2022/05/02 13:28:41;;;;;;;12.52;6.90;;;;;;;;;;5028925;28;20526;-69
2022/05/02 13:31:17;;;;;;;13.05;8.23;;;;;;;;;;5032731;28;20148;-68
2022/05/02 13:33:51;;;;;;;12.07;7.63;;;;;;;;;;5030752;28;20025;-70
2022/05/02 13:36:17;;;;;;;10.68;7.40;;;;;;;;;;5030187;28;20139;-68
2022/05/02 13:39:08;;;;;;;9.82;6.80;;;;;;;;;;5036404;28;20036;-69
2022/05/02 13:41:44;;;;;;;11.88;6.20;;;;;;;;;;5028657;28;20037;-70
2022/05/02 13:44:29;;;;;;;9.57;6.93;;;;;;;;;;5030658;28;20592;-69
2022/05/02 13:47:09;;;;;;;9.65;5.93;;;;;;;;;;5033250;28;20045;-71
2022/05/02 13:49:43;;;;;;;10.07;6.60;;;;;;;;;;5031091;28;20030;-68
2022/05/02 13:52:29;;;;;;;9.07;6.95;;;;;;;;;;5029035;28;20044;-68
2022/05/02 13:54:55;;;;;;;10.90;7.05;;;;;;;;;;5030062;28;20041;-69
2022/05/02 13:57:44;;;;;;;10.73;6.80;;;;;;;;;;5044080;28;20524;-69
2022/05/02 14:02:55;;;;;;;13.13;7.10;;;;;;;;;;5035513;28;20030;-68
2022/05/02 14:05:28;;;;;;;10.98;7.30;;;;;;;;;;5037472;28;20065;-69
2022/05/02 14:07:58;;;;;;;10.45;6.50;;;;;;;;;;5036124;28;20605;-68
2022/05/02 14:10:24;;;;;;;13.40;6.57;;;;;;;;;;5035603;28;20036;-68
2022/05/02 14:12:51;;;;;;;10.18;6.88;;;;;;;;;;5039812;28;20049;-69
2022/05/02 14:15:19;;;;;;;13.55;7.95;;;;;;;;;;5031654;28;20031;-68
2022/05/02 14:17:50;;;;;;;9.05;6.72;;;;;;;;;;5050753;28;20129;-69
2022/05/02 14:20:25;;;;;;;14.07;7.45;;;;;;;;;;5036422;28;20032;-68
2022/05/02 14:23:08;;;;;;;13.70;7.15;;;;;;;;;;5031969;28;20038;-68
2022/05/02 14:25:36;;;;;;;11.55;6.75;;;;;;;;;;5038456;28;20034;-69
2022/05/02 14:28:07;;;;;;;12.32;6.40;;;;;;;;;;5039245;28;20112;-68
2022/05/02 14:30:38;;;;;;;12.68;6.22;;;;;;;;;;5041130;28;20070;-68
2022/05/02 14:33:15;;;;;;;11.75;6.43;;;;;;;;;;5030748;28;20017;-68
2022/05/02 14:35:44;;;;;;;13.02;6.13;;;;;;;;;;5039288;28;20038;-68
2022/05/02 14:38:14;;;;;;;13.00;6.85;;;;;;;;;;5032218;28;20033;-68
2022/05/02 14:40:42;;;;;;;14.55;6.35;;;;;;;;;;5043038;28;20044;-69
2022/05/02 14:43:09;;;;;;;12.00;6.93;;;;;;;;;;5036680;28;20124;-68
2022/05/02 14:45:38;;;;;;;11.63;6.78;;;;;;;;;;5036892;28;20530;-68
2022/05/02 14:48:05;;;;;;;9.00;6.35;;;;;;;;;;5031659;28;20108;-68
2022/05/02 14:50:32;;;;;;;13.50;6.63;;;;;;;;;;5034896;28;20029;-68
2022/05/02 14:53:00;;;;;;;8.88;5.95;;;;;;;;;;5035272;28;20076;-68
2022/05/02 14:55:28;;;;;;;9.70;6.20;;;;;;;;;;5032513;28;20060;-68
2022/05/02 14:57:57;;;;;;;9.93;6.25;;;;;;;;;;5039761;28;20033;-69
2022/05/02 15:00:23;;;;;;;8.35;6.30;;;;;;;;;;5039013;28;20025;-68
2022/05/02 15:02:52;;;;;;;9.75;6.28;;;;;;;;;;5037337;28;20036;-68
2022/05/02 15:05:21;;;;;;;12.13;7.88;;;;;;;;;;5034092;28;20037;-69
2022/05/02 15:08:15;;;;;;;12.57;6.40;;;;;;;;;;5034922;28;20057;-70
2022/05/02 15:10:43;;;;;;;17.98;6.82;;;;;;;;;;5035531;28;20569;-70
2022/05/02 15:13:46;;;;;;;14.15;7.10;;;;;;;;;;5029957;28;20485;-69
2022/05/02 15:16:21;;;;;;;11.27;7.07;;;;;;;;;;5044065;28;20048;-70
2022/05/02 15:22:24;;;;;;;11.60;7.32;;;;;;;;;;5037796;28;20043;-69
2022/05/02 15:24:53;;;;;;;14.25;9.18;;;;;;;;;;5040715;28;20045;-69
2022/05/02 15:38:48;;;;;;;13.00;8.40;;;;;;;;;;5036713;28;20035;-69
2022/05/02 15:41:16;;;;;;;17.63;8.73;;;;;;;;;;5026751;28;20550;-69
2022/05/02 15:43:50;;;;;;;14.07;8.85;;;;;;;;;;5036356;28;20046;-69
2022/05/02 15:46:17;;;;;;;13.38;8.65;;;;;;;;;;5031733;28;20041;-69